Time;durP1;ratioP1;P1;durP2;ratioP2;P2;SDS_P1;SDS_P2;PMS_P1;PMS_P2;Temp;Humidity;BMP_temperature;BMP_pressure;BME280_temperature;BME280_humidity;BME280_pressure;Samples;Min_cycle;Max_cycle;Signal;HPM_P1;HPM_P2
2023/12/19 00:01:30;;;;;;;34.30;19.13;;;5.50;99.90;;;;;;5085849;28;20212;-57
2023/12/19 00:03:58;;;;;;;39.40;21.00;;;5.50;99.90;;;;;;5085449;28;20223;-56
2023/12/19 00:06:26;;;;;;;40.70;20.27;;;5.50;99.90;;;;;;5084039;28;20231;-55
2023/12/19 00:08:55;;;;;;;42.40;21.60;;;5.50;99.90;;;;;;5086089;28;20258;-58
2023/12/19 00:11:23;;;;;;;38.60;20.00;;;5.50;99.90;;;;;;5080915;28;20250;-57
2023/12/19 00:13:53;;;;;;;42.40;21.03;;;5.50;99.90;;;;;;5082332;28;20199;-57
2023/12/19 00:16:21;;;;;;;39.00;20.90;;;5.50;99.90;;;;;;5087033;28;20311;-57
2023/12/19 00:18:49;;;;;;;43.60;21.30;;;5.50;99.90;;;;;;5086416;27;20226;-56
2023/12/19 00:21:18;;;;;;;40.20;20.50;;;5.50;99.90;;;;;;5086358;28;20226;-55
2023/12/19 00:23:46;;;;;;;44.07;21.97;;;5.50;99.90;;;;;;5084307;28;20219;-56
2023/12/19 00:26:16;;;;;;;40.63;21.80;;;5.50;99.90;;;;;;5081549;28;20600;-55
2023/12/19 00:28:44;;;;;;;40.93;21.40;;;5.50;99.90;;;;;;5086093;28;20196;-56
2023/12/19 00:31:21;;;;;;;47.80;22.23;;;5.50;99.90;;;;;;5084485;28;20268;-57
2023/12/19 00:33:50;;;;;;;44.73;22.77;;;5.50;99.90;;;;;;5077232;28;20309;-56
2023/12/19 00:36:20;;;;;;;47.93;22.87;;;5.50;99.90;;;;;;5083821;28;20243;-55
2023/12/19 00:38:49;;;;;;;41.37;23.17;;;5.50;99.90;;;;;;5084913;28;20234;-57
2023/12/19 00:41:17;;;;;;;45.53;22.00;;;5.50;99.90;;;;;;5080032;28;20222;-55
2023/12/19 00:43:46;;;;;;;46.50;22.80;;;5.50;99.90;;;;;;5084908;28;20195;-56
2023/12/19 00:46:14;;;;;;;45.10;22.63;;;5.50;99.90;;;;;;5078168;28;20231;-57
2023/12/19 00:48:44;;;;;;;49.23;22.17;;;5.50;99.90;;;;;;5085177;28;20223;-52
2023/12/19 00:51:12;;;;;;;47.13;23.07;;;5.50;99.90;;;;;;5083109;28;20630;-56
2023/12/19 00:53:41;;;;;;;46.07;23.53;;;5.50;99.90;;;;;;5087175;28;20249;-58
2023/12/19 00:56:11;;;;;;;49.53;23.67;;;5.50;99.90;;;;;;5082161;28;20187;-56
2023/12/19 00:58:40;;;;;;;48.60;24.00;;;5.50;99.90;;;;;;5083731;28;20200;-56
2023/12/19 01:01:08;;;;;;;52.80;25.07;;;5.50;99.90;;;;;;5081816;28;20222;-56
2023/12/19 01:03:37;;;;;;;53.43;25.37;;;5.40;99.90;;;;;;5086027;28;20230;-58
2023/12/19 01:06:07;;;;;;;54.53;24.90;;;5.40;99.90;;;;;;5090463;28;20697;-55
2023/12/19 01:08:36;;;;;;;53.83;25.90;;;5.40;99.90;;;;;;5086545;28;20218;-57
2023/12/19 01:11:07;;;;;;;49.53;26.10;;;5.40;99.90;;;;;;5087347;28;20638;-56
2023/12/19 01:13:35;;;;;;;58.30;26.47;;;5.40;99.90;;;;;;5087595;28;20625;-56
2023/12/19 01:16:03;;;;;;;58.33;26.17;;;5.40;99.90;;;;;;5082482;28;20223;-56
2023/12/19 01:18:32;;;;;;;49.50;26.30;;;5.40;99.90;;;;;;5090181;27;20243;-56
2023/12/19 01:21:03;;;;;;;57.40;27.43;;;5.50;99.90;;;;;;5087093;28;20601;-58
2023/12/19 01:23:33;;;;;;;53.23;24.53;;;5.40;99.90;;;;;;5080866;28;20314;-55
2023/12/19 01:26:02;;;;;;;51.13;25.60;;;5.40;99.90;;;;;;5084537;28;20196;-58
2023/12/19 01:28:39;;;;;;;56.33;27.00;;;5.40;99.90;;;;;;5083203;28;20226;-57
2023/12/19 01:31:08;;;;;;;58.53;27.27;;;5.40;99.90;;;;;;5081735;28;20546;-57
2023/12/19 01:33:36;;;;;;;60.20;27.03;;;5.40;99.90;;;;;;5085041;28;20226;-58
2023/12/19 01:36:05;;;;;;;55.30;27.17;;;5.40;99.90;;;;;;5083029;27;20728;-58
2023/12/19 01:38:37;;;;;;;62.10;28.07;;;5.40;99.90;;;;;;5086609;28;20277;-56
2023/12/19 01:41:05;;;;;;;55.97;26.73;;;5.40;99.90;;;;;;5088138;28;20192;-55
2023/12/19 01:43:33;;;;;;;59.30;27.93;;;5.40;99.90;;;;;;5088393;28;20212;-58
2023/12/19 01:46:01;;;;;;;60.63;27.90;;;5.40;99.90;;;;;;5085589;28;20216;-57
2023/12/19 01:48:30;;;;;;;67.87;30.10;;;5.40;99.90;;;;;;5086065;28;20212;-56
2023/12/19 01:50:58;;;;;;;59.13;27.97;;;5.40;99.90;;;;;;5084727;28;20294;-57
2023/12/19 01:53:27;;;;;;;59.67;28.93;;;5.40;99.90;;;;;;5084048;28;20330;-56
2023/12/19 01:55:57;;;;;;;60.50;27.20;;;5.40;99.90;;;;;;5088631;28;20198;-54
2023/12/19 01:58:28;;;;;;;61.57;28.97;;;5.40;99.90;;;;;;5084829;28;20195;-56
2023/12/19 02:00:57;;;;;;;66.70;29.90;;;5.40;99.90;;;;;;5089364;28;20243;-57
2023/12/19 02:03:26;;;;;;;63.07;29.67;;;5.40;99.90;;;;;;5086965;28;20245;-57
2023/12/19 02:05:55;;;;;;;64.97;29.83;;;5.40;99.90;;;;;;5084330;28;20214;-58
2023/12/19 02:08:24;;;;;;;71.43;29.70;;;5.40;99.90;;;;;;5084524;28;20218;-57
2023/12/19 02:10:52;;;;;;;64.90;30.23;;;5.40;99.90;;;;;;5084293;28;20192;-57
2023/12/19 02:13:22;;;;;;;65.47;29.93;;;5.40;99.90;;;;;;5079418;28;20215;-55
2023/12/19 02:15:51;;;;;;;63.93;28.80;;;5.40;99.90;;;;;;5085350;28;20211;-57
2023/12/19 02:18:21;;;;;;;65.93;29.40;;;5.40;99.90;;;;;;5084345;28;20212;-57
2023/12/19 02:20:50;;;;;;;63.90;29.47;;;5.30;99.90;;;;;;5088428;28;20219;-56
2023/12/19 02:23:20;;;;;;;59.83;28.40;;;5.40;99.90;;;;;;5084446;28;20241;-56
2023/12/19 02:25:50;;;;;;;65.20;29.07;;;5.40;99.90;;;;;;5088301;28;20198;-57
2023/12/19 02:28:18;;;;;;;63.13;29.57;;;5.30;99.90;;;;;;5084829;28;20306;-57
2023/12/19 02:30:47;;;;;;;73.03;30.57;;;5.30;99.90;;;;;;5082560;28;20319;-58
2023/12/19 02:33:15;;;;;;;66.33;28.77;;;5.30;99.90;;;;;;5085856;28;20238;-57
2023/12/19 02:35:43;;;;;;;73.67;29.43;;;5.30;99.90;;;;;;5087841;28;20654;-57
2023/12/19 02:38:11;;;;;;;69.13;29.77;;;5.30;99.90;;;;;;5086311;28;20264;-56
2023/12/19 02:40:41;;;;;;;63.47;28.63;;;5.30;99.90;;;;;;5089463;28;20203;-57
2023/12/19 02:43:10;;;;;;;68.43;29.47;;;5.40;99.90;;;;;;5085203;28;20723;-57
2023/12/19 02:45:38;;;;;;;74.90;29.63;;;5.40;99.90;;;;;;5085084;28;20920;-57
2023/12/19 02:48:07;;;;;;;71.00;29.90;;;5.40;99.90;;;;;;5085064;28;20268;-56
2023/12/19 02:50:36;;;;;;;62.10;29.03;;;5.40;99.90;;;;;;5084802;28;20211;-56
2023/12/19 02:53:04;;;;;;;62.67;29.17;;;5.40;99.90;;;;;;5088202;28;20278;-55
2023/12/19 02:55:32;;;;;;;62.50;28.40;;;5.50;99.90;;;;;;5089663;28;20200;-57
2023/12/19 02:58:02;;;;;;;64.50;27.67;;;5.50;99.90;;;;;;5085330;28;20230;-56
2023/12/19 03:00:30;;;;;;;65.37;29.60;;;5.50;99.90;;;;;;5080732;28;20295;-57
2023/12/19 03:02:58;;;;;;;61.00;28.20;;;5.50;99.90;;;;;;5084612;28;20307;-57
2023/12/19 03:05:27;;;;;;;59.10;28.73;;;5.50;99.90;;;;;;5082467;28;20228;-58
2023/12/19 03:07:56;;;;;;;68.03;27.97;;;5.50;99.90;;;;;;5084902;28;20199;-57
2023/12/19 03:10:24;;;;;;;61.93;28.57;;;5.50;99.90;;;;;;5087755;28;20219;-57
2023/12/19 03:12:52;;;;;;;56.30;27.13;;;5.50;99.90;;;;;;5088584;28;20624;-57
2023/12/19 03:15:24;;;;;;;58.10;28.63;;;5.50;99.90;;;;;;5086856;28;20215;-56
2023/12/19 03:17:52;;;;;;;59.13;28.67;;;5.60;99.90;;;;;;5085983;28;20698;-57
2023/12/19 03:20:21;;;;;;;62.73;28.67;;;5.50;99.90;;;;;;5084778;28;20222;-57
2023/12/19 03:22:49;;;;;;;62.47;27.67;;;5.60;99.90;;;;;;5083792;28;20270;-57
2023/12/19 03:25:17;;;;;;;52.90;26.37;;;5.60;99.90;;;;;;5084992;28;20262;-57
2023/12/19 03:27:45;;;;;;;56.77;26.73;;;5.60;99.90;;;;;;5084006;28;20616;-56
2023/12/19 03:30:13;;;;;;;60.20;26.93;;;5.60;99.90;;;;;;5086656;28;20315;-56
2023/12/19 03:32:43;;;;;;;55.40;26.87;;;5.60;99.90;;;;;;5084097;27;20220;-56
2023/12/19 03:35:12;;;;;;;58.10;26.70;;;5.50;99.90;;;;;;5082507;28;20191;-55
2023/12/19 03:37:41;;;;;;;57.50;26.27;;;5.60;99.90;;;;;;5087835;28;20306;-55
2023/12/19 03:40:10;;;;;;;51.80;25.90;;;5.60;99.90;;;;;;5083378;28;20719;-56
2023/12/19 03:42:38;;;;;;;57.10;26.40;;;5.60;99.90;;;;;;5085582;28;20225;-56
2023/12/19 03:45:08;;;;;;;56.00;26.57;;;5.60;99.90;;;;;;5086506;28;20277;-56
2023/12/19 03:47:37;;;;;;;50.90;25.80;;;5.60;99.90;;;;;;5082136;28;20243;-56
2023/12/19 03:50:09;;;;;;;62.03;25.97;;;5.60;99.90;;;;;;5083881;28;20187;-57
2023/12/19 03:52:37;;;;;;;52.80;25.53;;;5.70;99.90;;;;;;5081571;28;20195;-55
2023/12/19 03:55:08;;;;;;;50.13;26.30;;;5.70;99.90;;;;;;5083439;28;20235;-55
2023/12/19 03:57:36;;;;;;;53.77;26.23;;;5.70;99.90;;;;;;5082623;28;20219;-56
2023/12/19 04:00:06;;;;;;;50.87;25.43;;;5.70;99.90;;;;;;5079008;28;20223;-57
2023/12/19 04:02:35;;;;;;;50.17;25.13;;;5.70;99.90;;;;;;5081386;28;20227;-57
2023/12/19 04:05:02;;;;;;;52.00;25.60;;;5.70;99.90;;;;;;5081702;28;20207;-57
2023/12/19 04:07:32;;;;;;;48.43;24.33;;;5.70;99.90;;;;;;5081086;28;20196;-57
2023/12/19 04:10:02;;;;;;;50.23;23.77;;;5.70;99.90;;;;;;5082885;27;20566;-57
2023/12/19 04:12:30;;;;;;;48.20;25.37;;;5.70;99.90;;;;;;5084545;28;20223;-57
2023/12/19 04:14:58;;;;;;;52.17;25.20;;;5.70;99.90;;;;;;5087374;28;20239;-53
2023/12/19 04:17:26;;;;;;;48.73;25.17;;;5.70;99.90;;;;;;5085001;28;20223;-57
2023/12/19 04:19:55;;;;;;;50.13;24.43;;;5.70;99.90;;;;;;5083051;28;20670;-57
2023/12/19 04:22:23;;;;;;;47.83;24.63;;;5.80;99.90;;;;;;5084153;28;20657;-58
2023/12/19 04:24:53;;;;;;;46.70;24.00;;;5.80;99.90;;;;;;5100210;28;20215;-56
2023/12/19 04:27:21;;;;;;;43.87;22.93;;;5.80;99.90;;;;;;5087714;28;20355;-57
2023/12/19 04:29:51;;;;;;;47.07;24.63;;;5.80;99.90;;;;;;5086849;28;20223;-56
2023/12/19 04:32:19;;;;;;;48.77;23.63;;;5.80;99.90;;;;;;5089253;28;20233;-57
2023/12/19 04:34:47;;;;;;;45.53;23.07;;;5.80;99.90;;;;;;5085980;28;20241;-57
2023/12/19 04:37:16;;;;;;;47.73;23.60;;;5.80;99.90;;;;;;5084172;28;20218;-58
2023/12/19 04:39:44;;;;;;;46.33;23.30;;;5.90;99.90;;;;;;5084916;28;20264;-56
2023/12/19 04:42:17;;;;;;;47.97;23.90;;;5.90;99.90;;;;;;5090722;28;20795;-56
2023/12/19 04:44:46;;;;;;;42.17;22.00;;;5.90;99.90;;;;;;5084646;28;21084;-57
2023/12/19 04:47:15;;;;;;;43.13;22.47;;;5.90;99.90;;;;;;5087038;28;20238;-55
2023/12/19 04:49:44;;;;;;;43.90;22.30;;;6.00;99.90;;;;;;5079754;28;20188;-57
2023/12/19 04:52:12;;;;;;;42.37;22.23;;;6.00;99.90;;;;;;5087230;28;20682;-57
2023/12/19 04:54:40;;;;;;;43.40;21.37;;;6.00;99.90;;;;;;5088573;28;20245;-57
2023/12/19 04:57:09;;;;;;;46.37;22.43;;;6.00;99.90;;;;;;5089397;28;20211;-57
2023/12/19 04:59:38;;;;;;;45.80;23.50;;;6.00;99.90;;;;;;5085009;28;20223;-57
2023/12/19 05:02:07;;;;;;;39.87;21.00;;;6.10;99.90;;;;;;5082305;28;20227;-55
2023/12/19 05:04:36;;;;;;;43.63;21.50;;;6.10;99.90;;;;;;5087359;28;20303;-57
2023/12/19 05:07:04;;;;;;;40.00;21.57;;;6.10;99.90;;;;;;5087536;28;20216;-58
2023/12/19 05:09:32;;;;;;;38.33;20.60;;;6.10;99.90;;;;;;5088240;28;20220;-57
2023/12/19 05:12:01;;;;;;;38.13;20.43;;;6.10;99.90;;;;;;5084616;28;20211;-57
2023/12/19 05:14:29;;;;;;;41.60;21.37;;;6.10;99.90;;;;;;5088142;28;20226;-56
2023/12/19 05:16:59;;;;;;;48.37;20.67;;;6.10;99.90;;;;;;5088187;28;20213;-57
2023/12/19 05:19:28;;;;;;;40.53;21.23;;;6.10;99.90;;;;;;5088380;28;20187;-56
2023/12/19 05:21:56;;;;;;;40.10;19.20;;;6.10;99.90;;;;;;5092659;28;20219;-56
2023/12/19 05:24:27;;;;;;;38.63;20.20;;;6.10;99.90;;;;;;5087257;28;20233;-57
2023/12/19 05:26:59;;;;;;;37.33;19.77;;;6.20;99.90;;;;;;5087466;28;20588;-58
2023/12/19 05:29:29;;;;;;;36.20;19.93;;;6.10;99.90;;;;;;5086987;28;20265;-57
2023/12/19 05:31:59;;;;;;;37.93;20.07;;;6.20;99.90;;;;;;5086296;28;20664;-57
2023/12/19 05:34:28;;;;;;;34.00;19.30;;;6.20;99.90;;;;;;5086763;28;20272;-56
2023/12/19 05:36:56;;;;;;;35.57;19.80;;;6.20;99.90;;;;;;5084742;28;20269;-56
2023/12/19 05:39:24;;;;;;;35.87;19.37;;;6.20;99.90;;;;;;5084957;28;20220;-56
2023/12/19 05:41:56;;;;;;;35.50;19.33;;;6.20;99.90;;;;;;5083530;28;20220;-56
2023/12/19 05:44:24;;;;;;;38.27;18.40;;;6.30;99.90;;;;;;5090347;28;20765;-57
2023/12/19 05:46:53;;;;;;;36.57;19.83;;;6.30;99.90;;;;;;5089311;28;20188;-55
2023/12/19 05:49:23;;;;;;;39.17;20.47;;;6.20;99.90;;;;;;4962903;28;20224;-57
2023/12/19 05:51:52;;;;;;;37.13;19.87;;;6.30;99.90;;;;;;4977961;28;20210;-57
2023/12/19 05:54:20;;;;;;;36.70;19.80;;;6.30;99.90;;;;;;5043701;28;20302;-58
2023/12/19 05:56:48;;;;;;;35.10;18.27;;;6.20;99.90;;;;;;5087946;28;20219;-57
2023/12/19 05:59:16;;;;;;;35.87;19.37;;;6.30;99.90;;;;;;5085410;28;20223;-57
2023/12/19 06:01:45;;;;;;;36.73;19.03;;;6.20;99.90;;;;;;5086208;28;20223;-57
2023/12/19 06:04:13;;;;;;;34.83;19.53;;;6.30;99.90;;;;;;5084738;28;20219;-57
2023/12/19 06:06:44;;;;;;;34.63;18.97;;;6.20;99.90;;;;;;5088849;28;20219;-58
2023/12/19 06:09:12;;;;;;;39.60;18.37;;;6.20;99.90;;;;;;5084345;28;20296;-56
2023/12/19 06:11:41;;;;;;;34.97;18.23;;;6.30;99.90;;;;;;5085171;28;20249;-57
2023/12/19 06:14:09;;;;;;;32.57;17.80;;;6.30;99.90;;;;;;5082275;28;20630;-55
2023/12/19 06:16:37;;;;;;;32.97;18.67;;;6.30;99.90;;;;;;5088184;28;20192;-57
2023/12/19 06:19:06;;;;;;;32.33;18.13;;;6.30;99.90;;;;;;5085386;28;20246;-55
2023/12/19 06:21:34;;;;;;;30.70;16.93;;;6.30;99.90;;;;;;5085416;28;20219;-58
2023/12/19 06:24:04;;;;;;;38.93;18.60;;;6.30;99.90;;;;;;5085569;28;20241;-54
2023/12/19 06:26:33;;;;;;;34.10;17.83;;;6.30;99.90;;;;;;5085474;28;20557;-57
2023/12/19 06:29:01;;;;;;;33.83;17.70;;;6.40;99.90;;;;;;5087144;28;20702;-57
2023/12/19 06:31:29;;;;;;;37.60;17.53;;;6.40;99.90;;;;;;5082355;28;20216;-56
2023/12/19 06:33:57;;;;;;;32.70;17.77;;;6.40;99.90;;;;;;5087146;28;20295;-56
2023/12/19 06:36:31;;;;;;;32.70;17.70;;;6.40;99.90;;;;;;5083206;28;20227;-56
2023/12/19 06:39:01;;;;;;;34.93;17.07;;;6.50;99.90;;;;;;5104974;28;20218;-58
2023/12/19 06:41:31;;;;;;;32.20;16.97;;;6.40;99.90;;;;;;5085649;28;20310;-58
2023/12/19 06:43:59;;;;;;;32.07;17.73;;;6.40;99.90;;;;;;5088935;28;20209;-58
2023/12/19 06:46:27;;;;;;;34.03;18.27;;;6.40;99.90;;;;;;5079884;28;20219;-54
2023/12/19 06:48:56;;;;;;;35.17;18.53;;;6.40;99.90;;;;;;5086539;28;20230;-57
2023/12/19 06:51:25;;;;;;;30.20;16.57;;;6.50;99.90;;;;;;5085592;28;20215;-57
2023/12/19 06:53:55;;;;;;;32.60;17.30;;;6.40;99.90;;;;;;5082867;28;20230;-57
2023/12/19 06:56:26;;;;;;;32.57;17.50;;;6.50;99.90;;;;;;5085412;28;20280;-57
2023/12/19 06:58:56;;;;;;;31.07;17.40;;;6.60;99.90;;;;;;5085080;28;20245;-57
2023/12/19 07:01:25;;;;;;;29.73;17.33;;;6.60;99.90;;;;;;5087472;28;20196;-55
2023/12/19 07:03:55;;;;;;;29.13;16.00;;;6.60;99.90;;;;;;5081427;28;20224;-57
2023/12/19 07:06:24;;;;;;;27.50;16.57;;;6.60;99.90;;;;;;5085239;28;20219;-57
2023/12/19 07:08:54;;;;;;;30.30;16.60;;;6.70;99.90;;;;;;5085742;28;20252;-57
2023/12/19 07:11:22;;;;;;;29.70;15.70;;;6.70;99.90;;;;;;5087074;28;20246;-56
2023/12/19 07:13:51;;;;;;;30.07;16.10;;;6.70;99.90;;;;;;5085610;28;20287;-57
2023/12/19 07:16:21;;;;;;;26.30;15.37;;;6.70;99.90;;;;;;5083901;28;20243;-56
2023/12/19 07:18:51;;;;;;;29.50;17.03;;;6.70;99.90;;;;;;5088050;28;20238;-57
2023/12/19 07:21:21;;;;;;;28.07;16.37;;;6.70;99.90;;;;;;5087190;28;20227;-57
2023/12/19 07:23:50;;;;;;;29.77;16.57;;;6.70;99.90;;;;;;5085219;28;20645;-56
2023/12/19 07:26:22;;;;;;;28.10;15.63;;;6.60;99.90;;;;;;5089802;28;20230;-57
2023/12/19 07:28:51;;;;;;;28.60;17.03;;;6.60;99.90;;;;;;5083967;28;20191;-56
2023/12/19 07:31:25;;;;;;;35.50;16.90;;;6.60;99.90;;;;;;5087900;28;20219;-57
2023/12/19 07:33:57;;;;;;;29.30;15.43;;;6.60;99.90;;;;;;5080559;28;20604;-58
2023/12/19 07:36:26;;;;;;;27.57;15.97;;;6.60;99.90;;;;;;5086199;28;20218;-55
2023/12/19 07:38:55;;;;;;;37.20;15.87;;;6.60;99.90;;;;;;5088429;28;20307;-57
2023/12/19 07:41:26;;;;;;;31.20;16.47;;;6.60;99.90;;;;;;5082383;28;20223;-56
2023/12/19 07:43:55;;;;;;;32.07;16.97;;;6.60;99.90;;;;;;5084300;28;20191;-55
2023/12/19 07:46:25;;;;;;;28.10;15.27;;;6.70;99.90;;;;;;5086795;28;20207;-57
2023/12/19 07:48:53;;;;;;;26.30;16.10;;;6.70;99.90;;;;;;5082305;28;20222;-57
2023/12/19 07:51:24;;;;;;;28.37;15.97;;;6.70;99.90;;;;;;5081508;27;20227;-56
2023/12/19 07:53:54;;;;;;;31.00;14.83;;;6.70;99.90;;;;;;5088040;28;20704;-58
2023/12/19 07:56:23;;;;;;;26.20;15.43;;;6.80;99.90;;;;;;5078927;28;20220;-58
2023/12/19 07:58:52;;;;;;;25.00;14.83;;;6.80;99.90;;;;;;5079377;28;20217;-57
2023/12/19 08:01:21;;;;;;;28.33;15.30;;;6.80;99.90;;;;;;5083949;28;20208;-58
2023/12/19 08:03:51;;;;;;;28.30;14.47;;;6.80;99.90;;;;;;5083027;28;20215;-57
2023/12/19 08:06:19;;;;;;;24.53;14.77;;;6.80;99.90;;;;;;5082856;28;20219;-56
2023/12/19 08:08:49;;;;;;;26.80;15.13;;;6.90;99.90;;;;;;5081639;28;20227;-55
2023/12/19 08:11:18;;;;;;;25.53;14.63;;;6.90;99.90;;;;;;5087339;28;20696;-57
2023/12/19 08:13:48;;;;;;;28.37;14.43;;;7.00;99.90;;;;;;5079552;28;20219;-57
2023/12/19 08:16:16;;;;;;;24.47;13.93;;;7.00;99.90;;;;;;5078932;28;20265;-56
2023/12/19 08:18:45;;;;;;;27.47;14.43;;;7.00;99.90;;;;;;5079952;28;20302;-57
2023/12/19 08:21:15;;;;;;;23.97;14.33;;;7.10;99.90;;;;;;5088822;28;20711;-58
2023/12/19 08:23:45;;;;;;;24.23;13.70;;;7.10;99.90;;;;;;5078786;28;20257;-57
2023/12/19 08:26:13;;;;;;;26.63;14.90;;;7.10;99.90;;;;;;5088773;28;20290;-57
2023/12/19 08:28:42;;;;;;;27.33;14.27;;;7.20;99.90;;;;;;5085456;28;20231;-58
2023/12/19 08:31:10;;;;;;;25.23;13.80;;;7.20;99.90;;;;;;5080303;28;20222;-58
2023/12/19 08:33:41;;;;;;;26.50;14.27;;;7.20;99.90;;;;;;5085469;28;20258;-57
2023/12/19 08:36:10;;;;;;;25.07;13.80;;;7.20;99.90;;;;;;5086213;28;20598;-57
2023/12/19 08:39:00;;;;;;;22.60;13.17;;;7.20;99.90;;;;;;5081857;28;20606;-56
2023/12/19 08:41:28;;;;;;;23.63;12.70;;;7.20;99.90;;;;;;5082730;28;20228;-56
2023/12/19 08:43:56;;;;;;;23.33;13.57;;;7.20;99.90;;;;;;5082527;28;20518;-58
2023/12/19 08:46:25;;;;;;;24.93;13.40;;;7.30;99.90;;;;;;5087969;28;20219;-57
2023/12/19 08:48:53;;;;;;;23.73;12.67;;;7.30;99.90;;;;;;5078755;27;20220;-58
2023/12/19 08:51:22;;;;;;;24.73;12.63;;;7.30;99.90;;;;;;5081133;28;20233;-57
2023/12/19 08:53:49;;;;;;;21.67;12.77;;;7.30;99.90;;;;;;5083628;28;20583;-57
2023/12/19 08:56:19;;;;;;;20.73;12.00;;;7.40;99.90;;;;;;5079990;28;20228;-58
2023/12/19 08:58:48;;;;;;;23.33;12.57;;;7.40;99.90;;;;;;5085899;28;20224;-57
2023/12/19 09:01:17;;;;;;;19.70;12.37;;;7.40;99.90;;;;;;5075275;28;20743;-56
2023/12/19 09:03:46;;;;;;;22.17;12.00;;;7.40;99.90;;;;;;5084019;28;20277;-57
2023/12/19 09:06:14;;;;;;;22.10;12.73;;;7.40;99.90;;;;;;5083625;28;20766;-57
2023/12/19 09:08:42;;;;;;;21.13;12.10;;;7.50;99.90;;;;;;5083686;27;20231;-57
2023/12/19 09:11:11;;;;;;;20.50;12.50;;;7.50;99.90;;;;;;5079064;28;20210;-57
2023/12/19 09:13:40;;;;;;;20.40;11.50;;;7.60;99.90;;;;;;5094800;28;20200;-57
2023/12/19 09:16:09;;;;;;;19.33;12.43;;;7.60;99.90;;;;;;5078522;28;20215;-57
2023/12/19 09:18:37;;;;;;;20.70;12.13;;;7.60;99.90;;;;;;5084265;28;20319;-57
2023/12/19 09:21:07;;;;;;;22.13;11.83;;;7.60;99.90;;;;;;5083904;28;20230;-57
2023/12/19 09:23:35;;;;;;;25.47;12.70;;;7.60;99.90;;;;;;5086300;28;20227;-57
2023/12/19 09:26:08;;;;;;;23.23;12.03;;;7.60;99.90;;;;;;5088111;28;20206;-57
2023/12/19 09:28:37;;;;;;;19.17;12.30;;;7.60;99.90;;;;;;5086442;28;20312;-57
2023/12/19 09:31:08;;;;;;;20.10;11.57;;;7.60;99.90;;;;;;5087724;28;20214;-55
2023/12/19 09:33:38;;;;;;;18.40;10.60;;;7.70;99.90;;;;;;5010051;28;20303;-57
2023/12/19 09:36:08;;;;;;;16.50;10.93;;;7.70;99.90;;;;;;4975459;28;20225;-57
2023/12/19 09:38:37;;;;;;;20.03;11.20;;;7.70;99.90;;;;;;5010972;28;20616;-56
2023/12/19 09:41:04;;;;;;;18.47;11.00;;;7.70;99.90;;;;;;5085345;28;20206;-57
2023/12/19 09:43:33;;;;;;;17.83;10.73;;;7.70;99.90;;;;;;5087572;28;20230;-56
2023/12/19 09:46:02;;;;;;;17.10;11.03;;;7.70;99.90;;;;;;5088611;28;20236;-56
2023/12/19 09:48:34;;;;;;;22.60;10.40;;;7.70;99.90;;;;;;5085248;28;20226;-57
2023/12/19 09:51:06;;;;;;;18.07;10.57;;;7.70;99.90;;;;;;5082818;28;20559;-56
2023/12/19 09:53:39;;;;;;;15.03;10.27;;;7.70;99.90;;;;;;5084509;28;20235;-56
2023/12/19 09:56:09;;;;;;;13.93;9.70;;;7.70;99.90;;;;;;5086369;28;20758;-56
2023/12/19 09:58:39;;;;;;;20.93;10.83;;;7.80;99.90;;;;;;5083932;28;20731;-58
2023/12/19 10:01:09;;;;;;;15.07;10.67;;;7.80;99.90;;;;;;5086920;28;20225;-57
2023/12/19 10:03:38;;;;;;;17.33;10.73;;;7.80;99.90;;;;;;5081387;28;20273;-57
2023/12/19 10:06:07;;;;;;;17.50;10.30;;;7.80;99.90;;;;;;5083762;28;20281;-57
2023/12/19 10:08:36;;;;;;;18.80;10.60;;;7.80;99.90;;;;;;5084119;28;20314;-58
2023/12/19 10:11:05;;;;;;;15.27;9.70;;;7.90;99.90;;;;;;5090057;28;20639;-57
2023/12/19 10:13:35;;;;;;;13.60;9.80;;;7.90;99.90;;;;;;5082166;28;20271;-57
2023/12/19 10:16:06;;;;;;;17.03;9.80;;;7.90;99.90;;;;;;5085673;28;20268;-58
2023/12/19 10:18:57;;;;;;;18.87;10.30;;;7.90;99.90;;;;;;5085460;28;20223;-58
2023/12/19 10:21:28;;;;;;;19.10;10.43;;;7.90;99.90;;;;;;5089772;28;20219;-56
2023/12/19 10:24:08;;;;;;;19.80;10.17;;;7.90;99.90;;;;;;5089219;28;20697;-57
2023/12/19 10:26:37;;;;;;;22.03;10.07;;;8.00;99.90;;;;;;5085773;28;20223;-56
2023/12/19 10:29:05;;;;;;;16.80;9.93;;;8.00;99.90;;;;;;5089965;28;20201;-56
2023/12/19 10:31:35;;;;;;;22.47;9.70;;;7.90;99.90;;;;;;5091761;28;20668;-57
2023/12/19 10:34:06;;;;;;;20.37;10.03;;;7.90;99.90;;;;;;5084016;28;20223;-56
2023/12/19 10:36:35;;;;;;;18.00;9.47;;;8.00;99.90;;;;;;5086087;28;20227;-58
2023/12/19 10:39:05;;;;;;;17.00;9.83;;;8.00;99.90;;;;;;5083121;28;20685;-57
2023/12/19 10:41:37;;;;;;;15.03;9.63;;;8.00;99.90;;;;;;5083313;28;20290;-57
2023/12/19 10:44:08;;;;;;;17.60;10.47;;;8.00;99.90;;;;;;5086204;28;20195;-56
2023/12/19 10:46:38;;;;;;;14.60;9.40;;;8.00;99.90;;;;;;5083975;28;20192;-57
2023/12/19 10:49:08;;;;;;;19.83;10.50;;;8.00;99.90;;;;;;5084929;28;20592;-57
2023/12/19 10:51:41;;;;;;;20.07;10.70;;;8.00;99.90;;;;;;5086547;28;20226;-56
2023/12/19 10:54:11;;;;;;;20.57;10.47;;;7.90;99.90;;;;;;5081417;28;20223;-54
2023/12/19 10:56:53;;;;;;;18.37;11.13;;;7.90;99.90;;;;;;5076473;28;20223;-57
2023/12/19 10:59:30;;;;;;;20.97;10.93;;;7.80;99.90;;;;;;5084202;28;20218;-58
2023/12/19 11:02:04;;;;;;;20.63;11.87;;;7.80;99.90;;;;;;5084056;28;20219;-56
2023/12/19 11:04:48;;;;;;;16.60;10.87;;;7.80;99.90;;;;;;5083707;28;20676;-57
2023/12/19 11:07:19;;;;;;;18.40;11.00;;;7.80;99.90;;;;;;5083939;28;20219;-57
2023/12/19 11:09:50;;;;;;;23.50;11.23;;;7.80;99.90;;;;;;5089837;28;20215;-56
2023/12/19 11:12:19;;;;;;;20.50;11.67;;;7.80;99.90;;;;;;5083372;28;20775;-57
2023/12/19 11:14:48;;;;;;;17.93;11.00;;;7.80;99.90;;;;;;5084723;28;20561;-57
2023/12/19 11:17:25;;;;;;;20.13;11.50;;;7.80;99.90;;;;;;5094742;28;20238;-57
2023/12/19 11:20:03;;;;;;;21.97;10.97;;;7.80;99.90;;;;;;5088559;28;20217;-57
2023/12/19 11:22:36;;;;;;;18.47;11.70;;;7.80;99.90;;;;;;5089539;28;20234;-56
2023/12/19 11:25:13;;;;;;;18.10;11.03;;;7.80;99.90;;;;;;5083530;28;20322;-57
2023/12/19 11:27:55;;;;;;;16.73;11.13;;;7.70;99.90;;;;;;5084919;28;20227;-58
2023/12/19 11:30:39;;;;;;;20.30;11.60;;;7.70;99.90;;;;;;5080053;28;20219;-58
2023/12/19 11:33:08;;;;;;;24.33;14.43;;;7.70;99.90;;;;;;5087672;28;20219;-57
2023/12/19 11:35:38;;;;;;;20.60;12.57;;;7.70;99.90;;;;;;5085003;28;20214;-57
2023/12/19 11:38:26;;;;;;;18.63;11.67;;;7.60;99.90;;;;;;5088618;28;20650;-56
2023/12/19 11:40:56;;;;;;;22.57;11.63;;;7.60;99.90;;;;;;5077784;28;20202;-54
2023/12/19 11:43:54;;;;;;;21.23;11.93;;;7.60;99.90;;;;;;5085272;28;20661;-57
2023/12/19 11:46:23;;;;;;;20.33;12.30;;;7.60;99.90;;;;;;5083591;28;20223;-57
2023/12/19 11:48:52;;;;;;;20.43;12.03;;;7.60;99.90;;;;;;5086651;28;20218;-58
2023/12/19 11:51:50;;;;;;;26.73;13.30;;;7.60;99.90;;;;;;5083625;27;20680;-58
2023/12/19 11:54:19;;;;;;;23.23;13.03;;;7.60;99.90;;;;;;5089072;28;20214;-57
2023/12/19 11:56:58;;;;;;;23.67;12.97;;;7.50;99.90;;;;;;5080412;28;20590;-57
2023/12/19 11:59:48;;;;;;;20.33;12.33;;;7.50;99.90;;;;;;5077900;28;20546;-58
2023/12/19 12:02:33;;;;;;;22.50;12.73;;;7.60;99.90;;;;;;5081649;28;20567;-57
2023/12/19 12:05:12;;;;;;;25.53;14.83;;;7.50;99.90;;;;;;5081357;28;20565;-58
2023/12/19 12:07:47;;;;;;;23.63;13.90;;;7.50;99.90;;;;;;5084348;28;20212;-58
2023/12/19 12:10:18;;;;;;;26.60;14.70;;;7.50;99.90;;;;;;5085638;28;21046;-58
2023/12/19 12:12:46;;;;;;;27.50;14.90;;;7.40;99.90;;;;;;5085061;28;20222;-58
2023/12/19 12:15:19;;;;;;;26.83;14.20;;;7.40;99.90;;;;;;5081411;28;20566;-58
2023/12/19 12:17:47;;;;;;;28.60;13.87;;;7.40;99.90;;;;;;5086865;28;20222;-58
2023/12/19 12:20:16;;;;;;;23.60;13.73;;;7.40;99.90;;;;;;5086190;28;20226;-56
2023/12/19 12:22:46;;;;;;;30.63;15.07;;;7.40;99.90;;;;;;5086736;28;20306;-56
2023/12/19 12:25:18;;;;;;;26.73;14.90;;;7.40;99.90;;;;;;5084391;28;20223;-56
2023/12/19 12:27:46;;;;;;;25.90;14.90;;;7.40;99.90;;;;;;5081652;28;20219;-57
2023/12/19 12:30:15;;;;;;;29.93;14.87;;;7.40;99.90;;;;;;5090401;27;20276;-57
2023/12/19 12:32:43;;;;;;;27.37;15.57;;;7.40;99.90;;;;;;5089082;28;20298;-58
2023/12/19 12:35:28;;;;;;;31.03;15.27;;;7.40;99.90;;;;;;5083633;28;20202;-56
2023/12/19 12:38:00;;;;;;;30.93;15.47;;;7.40;99.90;;;;;;5081209;28;20187;-57
2023/12/19 12:40:28;;;;;;;27.27;15.57;;;7.40;99.90;;;;;;5085864;28;20184;-57
2023/12/19 12:43:25;;;;;;;29.30;15.23;;;7.40;99.90;;;;;;5084822;28;20223;-57
2023/12/19 12:46:07;;;;;;;25.47;15.07;;;7.40;99.90;;;;;;5084188;28;20215;-58
2023/12/19 12:48:37;;;;;;;26.83;15.40;;;7.50;99.90;;;;;;5085259;28;20807;-57
2023/12/19 12:51:06;;;;;;;26.10;15.90;;;7.40;99.90;;;;;;5081471;28;20228;-57
2023/12/19 12:53:36;;;;;;;30.00;15.30;;;7.40;99.90;;;;;;5082486;28;20331;-58